sensor_id;sensor_type;location;lat;lon;timestamp;pressure;altitude;pressure_sealevel;temperature;humidity
72612;BME280;60655;52.182;4.474;2023-02-24T00:01:53;101746.06;;;5.96;67.64
72612;BME280;60655;52.182;4.474;2023-02-24T00:03:59;101754.47;;;6.16;70.72
72612;BME280;60655;52.182;4.474;2023-02-24T00:06:00;101751.34;;;6.36;70.68
72612;BME280;60655;52.182;4.474;2023-02-24T00:08:05;101723.47;;;6.18;70.56
72612;BME280;60655;52.182;4.474;2023-02-24T00:10:06;101752.19;;;6.29;70.94
72612;BME280;60655;52.182;4.474;2023-02-24T00:12:11;101744.25;;;6.13;63.93
72612;BME280;60655;52.182;4.474;2023-02-24T00:14:15;101735.34;;;6.22;69.54
72612;BME280;60655;52.182;4.474;2023-02-24T00:16:16;101734.88;;;6.26;72.65
72612;BME280;60655;52.182;4.474;2023-02-24T00:18:17;101730.56;;;6.09;72.77
72612;BME280;60655;52.182;4.474;2023-02-24T00:20:18;101732.88;;;6.28;71.68
72612;BME280;60655;52.182;4.474;2023-02-24T00:22:19;101735.00;;;6.41;71.78
72612;BME280;60655;52.182;4.474;2023-02-24T00:24:21;101721.34;;;6.21;71.74
72612;BME280;60655;52.182;4.474;2023-02-24T00:26:22;101725.47;;;6.16;69.09
72612;BME280;60655;52.182;4.474;2023-02-24T00:28:23;101723.00;;;6.06;68.79
72612;BME280;60655;52.182;4.474;2023-02-24T00:30:24;101720.19;;;6.07;68.77
72612;BME280;60655;52.182;4.474;2023-02-24T00:32:32;101716.56;;;6.17;68.30
72612;BME280;60655;52.182;4.474;2023-02-24T00:34:35;101710.91;;;6.36;72.46
72612;BME280;60655;52.182;4.474;2023-02-24T00:36:38;101704.03;;;6.27;72.21
72612;BME280;60655;52.182;4.474;2023-02-24T00:38:40;101710.25;;;6.58;72.23
72612;BME280;60655;52.182;4.474;2023-02-24T00:40:47;101704.50;;;6.47;72.01
72612;BME280;60655;52.182;4.474;2023-02-24T00:42:48;101706.28;;;6.54;71.69
72612;BME280;60655;52.182;4.474;2023-02-24T00:44:49;101710.09;;;6.35;66.29
72612;BME280;60655;52.182;4.474;2023-02-24T00:46:53;101693.94;;;6.47;70.56
72612;BME280;60655;52.182;4.474;2023-02-24T00:48:54;101692.28;;;6.54;71.66
72612;BME280;60655;52.182;4.474;2023-02-24T00:50:55;101697.38;;;6.55;71.30
72612;BME280;60655;52.182;4.474;2023-02-24T00:52:56;101673.78;;;6.54;71.23
72612;BME280;60655;52.182;4.474;2023-02-24T00:54:57;101675.44;;;6.47;70.58
72612;BME280;60655;52.182;4.474;2023-02-24T00:56:58;101679.75;;;6.39;70.69
72612;BME280;60655;52.182;4.474;2023-02-24T00:58:59;101683.84;;;6.58;71.00
72612;BME280;60655;52.182;4.474;2023-02-24T01:01:02;101672.81;;;6.55;70.23
72612;BME280;60655;52.182;4.474;2023-02-24T01:03:04;101678.41;;;6.52;71.23
72612;BME280;60655;52.182;4.474;2023-02-24T01:05:05;101670.66;;;6.58;71.66
72612;BME280;60655;52.182;4.474;2023-02-24T01:07:06;101670.50;;;6.60;71.30
72612;BME280;60655;52.182;4.474;2023-02-24T01:09:12;101665.88;;;6.54;71.19
72612;BME280;60655;52.182;4.474;2023-02-24T01:11:16;101668.69;;;6.44;71.04
72612;BME280;60655;52.182;4.474;2023-02-24T01:13:36;101655.34;;;6.37;70.96
72612;BME280;60655;52.182;4.474;2023-02-24T01:15:37;101651.38;;;6.41;72.30
72612;BME280;60655;52.182;4.474;2023-02-24T01:17:38;101643.13;;;6.44;72.46
72612;BME280;60655;52.182;4.474;2023-02-24T01:19:40;101638.16;;;6.50;72.52
72612;BME280;60655;52.182;4.474;2023-02-24T01:21:44;101633.53;;;6.52;72.05
72612;BME280;60655;52.182;4.474;2023-02-24T01:23:47;101631.25;;;6.49;71.35
72612;BME280;60655;52.182;4.474;2023-02-24T01:25:48;101631.41;;;6.39;71.31
72612;BME280;60655;52.182;4.474;2023-02-24T01:27:50;101625.88;;;6.18;71.74
72612;BME280;60655;52.182;4.474;2023-02-24T01:29:52;101620.09;;;6.30;72.71
72612;BME280;60655;52.182;4.474;2023-02-24T01:31:53;101617.28;;;6.32;70.88
72612;BME280;60655;52.182;4.474;2023-02-24T01:33:57;101614.50;;;6.25;70.83
72612;BME280;60655;52.182;4.474;2023-02-24T01:36:27;101610.88;;;6.18;69.68
72612;BME280;60655;52.182;4.474;2023-02-24T01:38:28;101602.13;;;6.26;69.47
72612;BME280;60655;52.182;4.474;2023-02-24T01:40:31;101604.03;;;6.40;71.10
72612;BME280;60655;52.182;4.474;2023-02-24T01:42:32;101591.81;;;6.47;71.62
72612;BME280;60655;52.182;4.474;2023-02-24T01:46:36;101583.91;;;6.47;71.16
72612;BME280;60655;52.182;4.474;2023-02-24T01:48:38;101582.16;;;6.31;68.58
72612;BME280;60655;52.182;4.474;2023-02-24T01:50:39;101584.50;;;6.18;65.28
72612;BME280;60655;52.182;4.474;2023-02-24T01:52:41;101572.63;;;6.14;64.32
72612;BME280;60655;52.182;4.474;2023-02-24T01:54:48;101576.47;;;6.03;68.11
72612;BME280;60655;52.182;4.474;2023-02-24T01:56:51;101585.03;;;5.97;63.20
72612;BME280;60655;52.182;4.474;2023-02-24T01:58:52;101580.09;;;6.02;63.25
72612;BME280;60655;52.182;4.474;2023-02-24T02:00:53;101567.16;;;6.24;69.30
72612;BME280;60655;52.182;4.474;2023-02-24T02:02:56;101559.69;;;6.35;69.79
72612;BME280;60655;52.182;4.474;2023-02-24T02:05:04;101558.06;;;6.34;68.58
72612;BME280;60655;52.182;4.474;2023-02-24T02:07:06;101558.59;;;6.22;67.95
72612;BME280;60655;52.182;4.474;2023-02-24T02:09:10;101554.63;;;6.26;66.90
72612;BME280;60655;52.182;4.474;2023-02-24T02:11:15;101552.09;;;6.40;70.17
72612;BME280;60655;52.182;4.474;2023-02-24T02:13:22;101553.13;;;6.31;69.07
72612;BME280;60655;52.182;4.474;2023-02-24T02:15:23;101556.34;;;6.02;66.84
72612;BME280;60655;52.182;4.474;2023-02-24T02:22:25;101544.47;;;6.46;68.04
72612;BME280;60655;52.182;4.474;2023-02-24T02:27:18;101538.28;;;6.30;67.10
72612;BME280;60655;52.182;4.474;2023-02-24T02:32:34;101542.28;;;6.18;66.86
72612;BME280;60655;52.182;4.474;2023-02-24T02:34:55;101520.50;;;6.24;69.51
72612;BME280;60655;52.182;4.474;2023-02-24T02:37:04;101529.03;;;6.34;68.38
72612;BME280;60655;52.182;4.474;2023-02-24T02:39:11;101537.00;;;6.18;68.38
72612;BME280;60655;52.182;4.474;2023-02-24T02:43:37;101529.09;;;6.18;67.82
72612;BME280;60655;52.182;4.474;2023-02-24T02:48:02;101517.25;;;6.45;67.49
72612;BME280;60655;52.182;4.474;2023-02-24T02:52:24;101508.56;;;5.97;65.42
72612;BME280;60655;52.182;4.474;2023-02-24T02:56:44;101492.56;;;6.38;70.41
72612;BME280;60655;52.182;4.474;2023-02-24T02:58:50;101496.97;;;6.46;69.18
72612;BME280;60655;52.182;4.474;2023-02-24T03:00:57;101487.34;;;6.30;65.13
72612;BME280;60655;52.182;4.474;2023-02-24T03:03:09;101491.63;;;6.31;66.83
72612;BME280;60655;52.182;4.474;2023-02-24T03:05:15;101497.25;;;6.28;67.59
72612;BME280;60655;52.182;4.474;2023-02-24T03:07:21;101482.09;;;6.14;67.56
72612;BME280;60655;52.182;4.474;2023-02-24T03:09:30;101480.59;;;6.27;68.28
72612;BME280;60655;52.182;4.474;2023-02-24T03:11:32;101469.88;;;6.21;66.83
72612;BME280;60655;52.182;4.474;2023-02-24T03:13:37;101473.84;;;6.17;67.45
72612;BME280;60655;52.182;4.474;2023-02-24T03:15:39;101464.81;;;6.11;67.09
72612;BME280;60655;52.182;4.474;2023-02-24T03:17:45;101463.06;;;6.03;65.91
72612;BME280;60655;52.182;4.474;2023-02-24T03:19:50;101458.84;;;6.17;70.45
72612;BME280;60655;52.182;4.474;2023-02-24T03:22:23;101457.19;;;6.24;67.77
72612;BME280;60655;52.182;4.474;2023-02-24T03:24:31;101453.94;;;6.45;69.47
72612;BME280;60655;52.182;4.474;2023-02-24T03:26:36;101443.50;;;6.21;68.65
72612;BME280;60655;52.182;4.474;2023-02-24T03:28:50;101444.06;;;6.08;67.17
72612;BME280;60655;52.182;4.474;2023-02-24T03:31:00;101431.94;;;6.30;66.67
72612;BME280;60655;52.182;4.474;2023-02-24T03:33:25;101419.97;;;6.11;69.86
72612;BME280;60655;52.182;4.474;2023-02-24T03:35:36;101428.41;;;6.37;69.72
72612;BME280;60655;52.182;4.474;2023-02-24T03:37:37;101426.72;;;6.14;68.41
72612;BME280;60655;52.182;4.474;2023-02-24T03:39:39;101422.25;;;6.14;68.62
72612;BME280;60655;52.182;4.474;2023-02-24T03:41:57;101421.78;;;6.10;68.70
72612;BME280;60655;52.182;4.474;2023-02-24T03:44:01;101414.56;;;6.35;68.71
72612;BME280;60655;52.182;4.474;2023-02-24T03:46:03;101420.06;;;5.95;66.07
72612;BME280;60655;52.182;4.474;2023-02-24T03:48:07;101409.13;;;6.06;69.08
72612;BME280;60655;52.182;4.474;2023-02-24T03:50:12;101411.28;;;6.02;68.66
72612;BME280;60655;52.182;4.474;2023-02-24T03:59:49;101406.56;;;6.21;67.88
72612;BME280;60655;52.182;4.474;2023-02-24T04:02:02;101392.44;;;6.14;67.38
72612;BME280;60655;52.182;4.474;2023-02-24T04:06:31;101394.81;;;6.31;68.84
72612;BME280;60655;52.182;4.474;2023-02-24T04:09:03;101396.06;;;6.13;66.19
72612;BME280;60655;52.182;4.474;2023-02-24T04:11:33;101397.31;;;6.25;68.96
72612;BME280;60655;52.182;4.474;2023-02-24T04:13:37;101396.50;;;6.24;68.50
72612;BME280;60655;52.182;4.474;2023-02-24T04:15:47;101375.47;;;6.08;66.38
72612;BME280;60655;52.182;4.474;2023-02-24T04:17:52;101390.88;;;6.27;70.17
72612;BME280;60655;52.182;4.474;2023-02-24T04:19:59;101381.31;;;6.26;70.59
72612;BME280;60655;52.182;4.474;2023-02-24T04:22:07;101394.56;;;6.41;71.08
72612;BME280;60655;52.182;4.474;2023-02-24T04:24:12;101367.00;;;6.43;70.53
72612;BME280;60655;52.182;4.474;2023-02-24T04:26:16;101361.84;;;6.50;71.16
72612;BME280;60655;52.182;4.474;2023-02-24T04:28:19;101365.53;;;6.18;68.05
72612;BME280;60655;52.182;4.474;2023-02-24T04:30:24;101352.31;;;5.95;70.50
72612;BME280;60655;52.182;4.474;2023-02-24T04:32:28;101350.75;;;6.09;69.55
72612;BME280;60655;52.182;4.474;2023-02-24T04:34:30;101361.09;;;6.19;69.84
72612;BME280;60655;52.182;4.474;2023-02-24T04:36:32;101351.47;;;6.03;69.67
72612;BME280;60655;52.182;4.474;2023-02-24T04:38:36;101343.25;;;6.21;71.75
72612;BME280;60655;52.182;4.474;2023-02-24T04:40:38;101341.31;;;6.15;69.73
72612;BME280;60655;52.182;4.474;2023-02-24T04:42:40;101338.28;;;6.03;69.24
72612;BME280;60655;52.182;4.474;2023-02-24T04:44:46;101344.72;;;6.00;69.53
72612;BME280;60655;52.182;4.474;2023-02-24T04:46:48;101334.53;;;6.20;70.26
72612;BME280;60655;52.182;4.474;2023-02-24T04:48:49;101333.31;;;6.31;69.06
72612;BME280;60655;52.182;4.474;2023-02-24T04:50:50;101330.53;;;6.24;69.08
72612;BME280;60655;52.182;4.474;2023-02-24T04:52:57;101329.06;;;6.22;70.18
72612;BME280;60655;52.182;4.474;2023-02-24T04:55:00;101325.78;;;5.97;68.58
72612;BME280;60655;52.182;4.474;2023-02-24T04:57:03;101330.88;;;5.98;69.88
72612;BME280;60655;52.182;4.474;2023-02-24T04:59:06;101305.97;;;6.01;69.80
72612;BME280;60655;52.182;4.474;2023-02-24T05:01:10;101326.44;;;6.22;69.54
72612;BME280;60655;52.182;4.474;2023-02-24T05:03:11;101317.81;;;6.28;70.21
72612;BME280;60655;52.182;4.474;2023-02-24T05:05:12;101319.16;;;6.01;71.60
72612;BME280;60655;52.182;4.474;2023-02-24T05:07:14;101316.22;;;6.19;71.57
72612;BME280;60655;52.182;4.474;2023-02-24T05:09:16;101309.72;;;6.06;71.25
72612;BME280;60655;52.182;4.474;2023-02-24T05:11:17;101310.97;;;6.19;70.48
72612;BME280;60655;52.182;4.474;2023-02-24T05:13:20;101304.19;;;5.93;70.86
72612;BME280;60655;52.182;4.474;2023-02-24T05:15:21;101293.66;;;5.85;70.53
72612;BME280;60655;52.182;4.474;2023-02-24T05:17:22;101295.31;;;5.86;71.58
72612;BME280;60655;52.182;4.474;2023-02-24T05:19:24;101295.97;;;5.88;71.45
72612;BME280;60655;52.182;4.474;2023-02-24T05:21:44;101277.84;;;5.93;71.61
72612;BME280;60655;52.182;4.474;2023-02-24T05:23:45;101287.16;;;6.04;73.08
72612;BME280;60655;52.182;4.474;2023-02-24T05:25:46;101262.00;;;5.93;70.26
72612;BME280;60655;52.182;4.474;2023-02-24T05:27:48;101267.25;;;6.01;71.68
72612;BME280;60655;52.182;4.474;2023-02-24T05:29:49;101272.34;;;6.03;70.71
72612;BME280;60655;52.182;4.474;2023-02-24T05:31:50;101268.59;;;5.97;69.42
72612;BME280;60655;52.182;4.474;2023-02-24T05:34:04;101258.38;;;5.94;69.84
72612;BME280;60655;52.182;4.474;2023-02-24T05:36:09;101271.78;;;6.07;69.74
72612;BME280;60655;52.182;4.474;2023-02-24T05:38:11;101264.09;;;6.06;69.93
72612;BME280;60655;52.182;4.474;2023-02-24T05:40:13;101254.22;;;6.00;70.71
72612;BME280;60655;52.182;4.474;2023-02-24T05:42:14;101251.28;;;5.95;70.33
72612;BME280;60655;52.182;4.474;2023-02-24T05:44:18;101245.84;;;5.96;69.63
72612;BME280;60655;52.182;4.474;2023-02-24T05:46:25;101243.78;;;6.06;71.45
72612;BME280;60655;52.182;4.474;2023-02-24T05:48:29;101237.09;;;6.19;72.04
72612;BME280;60655;52.182;4.474;2023-02-24T05:50:34;101224.44;;;6.14;71.36
72612;BME280;60655;52.182;4.474;2023-02-24T05:52:36;101232.41;;;6.29;70.83
72612;BME280;60655;52.182;4.474;2023-02-24T05:54:40;101221.69;;;6.30;71.04
72612;BME280;60655;52.182;4.474;2023-02-24T05:56:41;101221.31;;;6.10;70.48
72612;BME280;60655;52.182;4.474;2023-02-24T05:58:43;101216.13;;;6.02;71.38
72612;BME280;60655;52.182;4.474;2023-02-24T06:00:44;101206.63;;;6.16;70.79
72612;BME280;60655;52.182;4.474;2023-02-24T06:02:46;101214.03;;;6.35;72.45
72612;BME280;60655;52.182;4.474;2023-02-24T06:04:50;101202.03;;;6.10;70.65
72612;BME280;60655;52.182;4.474;2023-02-24T06:06:53;101202.50;;;6.14;70.73
72612;BME280;60655;52.182;4.474;2023-02-24T06:08:54;101203.81;;;6.18;72.78
72612;BME280;60655;52.182;4.474;2023-02-24T06:10:57;101193.06;;;6.19;72.25
72612;BME280;60655;52.182;4.474;2023-02-24T06:13:02;101192.59;;;6.16;70.96
72612;BME280;60655;52.182;4.474;2023-02-24T06:15:04;101185.56;;;6.08;71.22
72612;BME280;60655;52.182;4.474;2023-02-24T06:17:07;101186.28;;;6.25;73.62
72612;BME280;60655;52.182;4.474;2023-02-24T06:19:10;101181.34;;;6.36;72.02
72612;BME280;60655;52.182;4.474;2023-02-24T06:21:11;101178.09;;;6.34;72.50
72612;BME280;60655;52.182;4.474;2023-02-24T06:23:12;101163.34;;;6.25;71.04
72612;BME280;60655;52.182;4.474;2023-02-24T06:25:16;101177.13;;;6.13;72.94
72612;BME280;60655;52.182;4.474;2023-02-24T06:27:19;101173.78;;;6.19;72.95
72612;BME280;60655;52.182;4.474;2023-02-24T06:29:21;101168.22;;;6.14;71.97
72612;BME280;60655;52.182;4.474;2023-02-24T06:31:25;101157.84;;;5.97;72.25
72612;BME280;60655;52.182;4.474;2023-02-24T06:33:27;101158.66;;;6.13;72.33
72612;BME280;60655;52.182;4.474;2023-02-24T06:35:28;101161.94;;;6.00;72.75
72612;BME280;60655;52.182;4.474;2023-02-24T06:37:29;101153.09;;;6.07;73.07
72612;BME280;60655;52.182;4.474;2023-02-24T06:39:30;101151.41;;;6.15;72.50
72612;BME280;60655;52.182;4.474;2023-02-24T06:41:34;101131.88;;;6.24;74.49
72612;BME280;60655;52.182;4.474;2023-02-24T06:43:38;101144.31;;;6.15;72.13
72612;BME280;60655;52.182;4.474;2023-02-24T06:45:39;101138.75;;;6.10;72.37
72612;BME280;60655;52.182;4.474;2023-02-24T06:47:43;101146.31;;;6.13;73.19
72612;BME280;60655;52.182;4.474;2023-02-24T06:49:46;101129.38;;;6.07;72.89
72612;BME280;60655;52.182;4.474;2023-02-24T06:51:47;101143.13;;;6.18;71.42
72612;BME280;60655;52.182;4.474;2023-02-24T06:53:50;101134.41;;;6.17;72.91
72612;BME280;60655;52.182;4.474;2023-02-24T06:55:52;101139.31;;;6.05;73.03
72612;BME280;60655;52.182;4.474;2023-02-24T06:57:56;101141.97;;;6.20;72.54
72612;BME280;60655;52.182;4.474;2023-02-24T06:59:58;101141.22;;;6.12;73.67
72612;BME280;60655;52.182;4.474;2023-02-24T07:02:00;101122.72;;;5.97;73.85
72612;BME280;60655;52.182;4.474;2023-02-24T07:04:04;101127.22;;;6.26;73.84
72612;BME280;60655;52.182;4.474;2023-02-24T07:06:08;101118.84;;;6.22;73.33
72612;BME280;60655;52.182;4.474;2023-02-24T07:08:36;101117.31;;;6.28;74.54
72612;BME280;60655;52.182;4.474;2023-02-24T07:10:37;101112.22;;;6.26;74.27
72612;BME280;60655;52.182;4.474;2023-02-24T07:12:39;101096.47;;;6.03;75.35
72612;BME280;60655;52.182;4.474;2023-02-24T07:14:40;101102.81;;;6.09;75.58
72612;BME280;60655;52.182;4.474;2023-02-24T07:16:41;101107.84;;;6.19;76.64
72612;BME280;60655;52.182;4.474;2023-02-24T07:18:45;101111.47;;;6.18;77.29
72612;BME280;60655;52.182;4.474;2023-02-24T07:20:49;101112.13;;;6.20;75.65
72612;BME280;60655;52.182;4.474;2023-02-24T07:22:51;101100.66;;;6.13;76.25
72612;BME280;60655;52.182;4.474;2023-02-24T07:24:52;101097.56;;;6.24;76.12
72612;BME280;60655;52.182;4.474;2023-02-24T07:27:02;101093.56;;;6.13;76.55
72612;BME280;60655;52.182;4.474;2023-02-24T07:29:04;101100.56;;;6.21;75.71
72612;BME280;60655;52.182;4.474;2023-02-24T07:31:12;101110.47;;;6.19;77.43
72612;BME280;60655;52.182;4.474;2023-02-24T07:33:13;101102.31;;;6.28;77.04
72612;BME280;60655;52.182;4.474;2023-02-24T07:35:14;101099.22;;;6.25;77.23
72612;BME280;60655;52.182;4.474;2023-02-24T07:37:15;101101.38;;;6.21;76.82
72612;BME280;60655;52.182;4.474;2023-02-24T07:39:16;101087.66;;;6.26;77.78
72612;BME280;60655;52.182;4.474;2023-02-24T07:41:20;101084.91;;;6.19;77.74
72612;BME280;60655;52.182;4.474;2023-02-24T07:43:22;101082.09;;;6.21;77.29
72612;BME280;60655;52.182;4.474;2023-02-24T07:45:23;101067.00;;;6.15;77.52
72612;BME280;60655;52.182;4.474;2023-02-24T07:47:26;101084.28;;;6.17;79.61
72612;BME280;60655;52.182;4.474;2023-02-24T07:49:27;101085.31;;;6.31;80.39
72612;BME280;60655;52.182;4.474;2023-02-24T07:51:29;101085.84;;;6.26;78.34
72612;BME280;60655;52.182;4.474;2023-02-24T07:53:30;101079.03;;;6.32;78.33
72612;BME280;60655;52.182;4.474;2023-02-24T07:55:34;101079.03;;;6.32;77.91
72612;BME280;60655;52.182;4.474;2023-02-24T07:57:36;101078.66;;;6.20;78.55
72612;BME280;60655;52.182;4.474;2023-02-24T07:59:41;101072.56;;;6.20;79.51
72612;BME280;60655;52.182;4.474;2023-02-24T08:01:45;101076.72;;;6.14;80.39
72612;BME280;60655;52.182;4.474;2023-02-24T08:03:57;101066.47;;;6.19;80.09
72612;BME280;60655;52.182;4.474;2023-02-24T08:06:00;101071.38;;;6.22;80.72
72612;BME280;60655;52.182;4.474;2023-02-24T08:08:15;101053.72;;;6.23;80.15
72612;BME280;60655;52.182;4.474;2023-02-24T08:10:20;101064.03;;;6.32;79.51
72612;BME280;60655;52.182;4.474;2023-02-24T08:12:24;101066.00;;;6.16;80.13
72612;BME280;60655;52.182;4.474;2023-02-24T08:14:28;101074.19;;;6.21;80.71
72612;BME280;60655;52.182;4.474;2023-02-24T08:16:48;101060.53;;;6.17;81.06
72612;BME280;60655;52.182;4.474;2023-02-24T08:18:49;101050.19;;;6.30;82.33
72612;BME280;60655;52.182;4.474;2023-02-24T08:20:50;101060.53;;;6.47;81.05
72612;BME280;60655;52.182;4.474;2023-02-24T08:22:53;101057.75;;;6.33;80.98
72612;BME280;60655;52.182;4.474;2023-02-24T08:24:58;101045.16;;;6.35;81.92
72612;BME280;60655;52.182;4.474;2023-02-24T08:27:05;101027.59;;;6.42;81.85
72612;BME280;60655;52.182;4.474;2023-02-24T08:29:08;101046.50;;;6.61;80.89
72612;BME280;60655;52.182;4.474;2023-02-24T08:31:09;101049.44;;;6.51;79.95
72612;BME280;60655;52.182;4.474;2023-02-24T08:33:18;101031.19;;;6.35;80.67
72612;BME280;60655;52.182;4.474;2023-02-24T08:35:19;101025.31;;;6.39;82.20
72612;BME280;60655;52.182;4.474;2023-02-24T08:37:24;101033.06;;;6.41;82.27
72612;BME280;60655;52.182;4.474;2023-02-24T08:39:25;101021.41;;;6.50;82.43
72612;BME280;60655;52.182;4.474;2023-02-24T08:41:29;101034.06;;;6.40;83.14
72612;BME280;60655;52.182;4.474;2023-02-24T08:43:45;101041.34;;;6.38;83.33
72612;BME280;60655;52.182;4.474;2023-02-24T08:45:52;101033.09;;;6.26;84.77
72612;BME280;60655;52.182;4.474;2023-02-24T08:47:56;101029.16;;;6.22;85.08
72612;BME280;60655;52.182;4.474;2023-02-24T08:50:00;101019.63;;;6.21;85.81
72612;BME280;60655;52.182;4.474;2023-02-24T08:52:01;101029.53;;;6.34;86.03
72612;BME280;60655;52.182;4.474;2023-02-24T08:54:05;101015.53;;;6.33;86.91
72612;BME280;60655;52.182;4.474;2023-02-24T08:56:12;101009.03;;;6.36;87.15
72612;BME280;60655;52.182;4.474;2023-02-24T08:58:13;101014.50;;;6.49;87.29
72612;BME280;60655;52.182;4.474;2023-02-24T09:00:18;101000.69;;;6.32;88.15
72612;BME280;60655;52.182;4.474;2023-02-24T09:02:39;100996.94;;;6.41;89.27
72612;BME280;60655;52.182;4.474;2023-02-24T09:04:44;100992.38;;;6.50;89.59
72612;BME280;60655;52.182;4.474;2023-02-24T09:06:49;100988.91;;;6.50;89.94
72612;BME280;60655;52.182;4.474;2023-02-24T09:08:53;100988.88;;;6.28;90.83
72612;BME280;60655;52.182;4.474;2023-02-24T09:11:14;100988.31;;;6.33;91.39
72612;BME280;60655;52.182;4.474;2023-02-24T09:13:15;100991.59;;;6.35;91.92
72612;BME280;60655;52.182;4.474;2023-02-24T09:15:16;100984.97;;;6.09;93.22
72612;BME280;60655;52.182;4.474;2023-02-24T09:17:17;100992.25;;;6.22;93.50
72612;BME280;60655;52.182;4.474;2023-02-24T09:19:20;100986.78;;;6.24;93.98
72612;BME280;60655;52.182;4.474;2023-02-24T09:21:40;100973.00;;;6.43;94.52
72612;BME280;60655;52.182;4.474;2023-02-24T09:23:49;100962.16;;;6.53;94.25
72612;BME280;60655;52.182;4.474;2023-02-24T09:25:52;100950.94;;;6.29;93.54
72612;BME280;60655;52.182;4.474;2023-02-24T09:28:04;100946.84;;;6.12;94.67
72612;BME280;60655;52.182;4.474;2023-02-24T09:30:11;100956.41;;;6.13;95.04
72612;BME280;60655;52.182;4.474;2023-02-24T09:32:32;100959.03;;;6.28;95.75
72612;BME280;60655;52.182;4.474;2023-02-24T09:34:36;100946.13;;;6.18;95.32
72612;BME280;60655;52.182;4.474;2023-02-24T09:36:37;100954.66;;;6.35;96.12
72612;BME280;60655;52.182;4.474;2023-02-24T09:38:47;100952.34;;;6.47;94.60
72612;BME280;60655;52.182;4.474;2023-02-24T09:41:00;100962.72;;;6.48;95.46
72612;BME280;60655;52.182;4.474;2023-02-24T09:43:12;100949.56;;;6.33;95.39
72612;BME280;60655;52.182;4.474;2023-02-24T09:45:22;100942.66;;;6.18;96.83
72612;BME280;60655;52.182;4.474;2023-02-24T09:47:42;100936.59;;;6.38;96.41
72612;BME280;60655;52.182;4.474;2023-02-24T09:49:59;100935.16;;;6.36;96.55
72612;BME280;60655;52.182;4.474;2023-02-24T09:52:15;100943.38;;;6.26;97.23
72612;BME280;60655;52.182;4.474;2023-02-24T09:54:19;100940.44;;;6.36;97.71
72612;BME280;60655;52.182;4.474;2023-02-24T09:59:29;100934.03;;;6.24;97.72
72612;BME280;60655;52.182;4.474;2023-02-24T10:01:47;100939.84;;;6.34;98.43
72612;BME280;60655;52.182;4.474;2023-02-24T10:06:12;100933.97;;;6.38;97.57
72612;BME280;60655;52.182;4.474;2023-02-24T10:08:23;100930.66;;;6.51;97.60
72612;BME280;60655;52.182;4.474;2023-02-24T10:10:29;100923.41;;;6.38;98.14
72612;BME280;60655;52.182;4.474;2023-02-24T10:12:36;100906.59;;;6.39;98.21
72612;BME280;60655;52.182;4.474;2023-02-24T10:15:05;100917.09;;;6.54;98.14
72612;BME280;60655;52.182;4.474;2023-02-24T10:17:24;100914.41;;;6.48;98.47
72612;BME280;60655;52.182;4.474;2023-02-24T10:19:39;100905.09;;;6.52;98.93
72612;BME280;60655;52.182;4.474;2023-02-24T10:21:53;100903.91;;;6.54;98.65
72612;BME280;60655;52.182;4.474;2023-02-24T10:24:12;100903.34;;;6.59;98.94
72612;BME280;60655;52.182;4.474;2023-02-24T10:26:27;100899.00;;;6.72;98.47
72612;BME280;60655;52.182;4.474;2023-02-24T10:28:49;100903.34;;;6.80;98.31
72612;BME280;60655;52.182;4.474;2023-02-24T10:31:09;100905.84;;;6.67;98.33
72612;BME280;60655;52.182;4.474;2023-02-24T10:33:33;100897.81;;;6.54;98.69
72612;BME280;60655;52.182;4.474;2023-02-24T10:35:38;100895.88;;;6.62;98.99
72612;BME280;60655;52.182;4.474;2023-02-24T10:37:39;100899.06;;;6.79;99.14
72612;BME280;60655;52.182;4.474;2023-02-24T10:39:40;100893.97;;;6.77;98.56
72612;BME280;60655;52.182;4.474;2023-02-24T10:41:45;100891.78;;;6.81;98.88
72612;BME280;60655;52.182;4.474;2023-02-24T10:43:54;100890.41;;;6.64;99.49
72612;BME280;60655;52.182;4.474;2023-02-24T10:46:02;100894.81;;;6.57;99.95
72612;BME280;60655;52.182;4.474;2023-02-24T10:48:06;100898.81;;;6.74;100.00
72612;BME280;60655;52.182;4.474;2023-02-24T10:50:22;100898.78;;;6.95;99.32
72612;BME280;60655;52.182;4.474;2023-02-24T10:52:36;100901.63;;;6.94;99.11
72612;BME280;60655;52.182;4.474;2023-02-24T10:54:50;100898.78;;;6.95;99.47
72612;BME280;60655;52.182;4.474;2023-02-24T10:57:27;100901.78;;;7.14;98.80
72612;BME280;60655;52.182;4.474;2023-02-24T10:59:56;100897.72;;;7.11;99.79
72612;BME280;60655;52.182;4.474;2023-02-24T11:02:22;100897.59;;;7.26;99.80
72612;BME280;60655;52.182;4.474;2023-02-24T11:04:38;100901.59;;;7.43;98.79
72612;BME280;60655;52.182;4.474;2023-02-24T11:07:06;100900.41;;;7.18;98.30
72612;BME280;60655;52.182;4.474;2023-02-24T11:09:20;100900.41;;;7.18;99.91
72612;BME280;60655;52.182;4.474;2023-02-24T11:11:33;100895.16;;;7.24;98.83
72612;BME280;60655;52.182;4.474;2023-02-24T11:13:55;100889.63;;;7.47;98.69
72612;BME280;60655;52.182;4.474;2023-02-24T11:16:16;100896.94;;;7.45;97.26
72612;BME280;60655;52.182;4.474;2023-02-24T11:18:37;100885.16;;;7.48;97.21
72612;BME280;60655;52.182;4.474;2023-02-24T11:20:45;100881.69;;;7.47;97.18
72612;BME280;60655;52.182;4.474;2023-02-24T11:22:48;100865.97;;;7.39;96.99
72612;BME280;60655;52.182;4.474;2023-02-24T11:24:52;100869.41;;;7.67;96.78
72612;BME280;60655;52.182;4.474;2023-02-24T11:26:53;100861.84;;;7.64;96.50
72612;BME280;60655;52.182;4.474;2023-02-24T11:28:58;100860.09;;;7.78;96.09
72612;BME280;60655;52.182;4.474;2023-02-24T11:31:15;100865.25;;;7.99;96.06
72612;BME280;60655;52.182;4.474;2023-02-24T11:35:42;100867.06;;;7.92;94.55
72612;BME280;60655;52.182;4.474;2023-02-24T11:40:25;100860.09;;;7.78;94.38
72612;BME280;60655;52.182;4.474;2023-02-24T11:42:52;100861.31;;;7.75;93.77
72612;BME280;60655;52.182;4.474;2023-02-24T11:47:12;100854.19;;;7.83;93.09
72612;BME280;60655;52.182;4.474;2023-02-24T11:51:31;100836.56;;;8.09;92.48
72612;BME280;60655;52.182;4.474;2023-02-24T11:55:48;100842.91;;;8.15;90.82
72612;BME280;60655;52.182;4.474;2023-02-24T11:57:53;100845.97;;;8.19;89.97